sensor_id;sensor_type;location;lat;lon;timestamp;P1;durP1;ratioP1;P2;durP2;ratioP2
75608;SDS011;64194;51.044;13.780;2022-11-20T00:00:37;22.77;;;10.27;;
75608;SDS011;64194;51.044;13.780;2022-11-20T00:04:39;26.42;;;11.18;;
75608;SDS011;64194;51.044;13.780;2022-11-20T00:08:40;25.20;;;10.55;;
75608;SDS011;64194;51.044;13.780;2022-11-20T00:12:42;24.67;;;10.73;;
75608;SDS011;64194;51.044;13.780;2022-11-20T00:16:44;25.33;;;11.27;;
75608;SDS011;64194;51.044;13.780;2022-11-20T00:20:45;28.23;;;11.10;;
75608;SDS011;64194;51.044;13.780;2022-11-20T00:24:49;23.60;;;10.32;;
75608;SDS011;64194;51.044;13.780;2022-11-20T00:28:52;25.08;;;10.70;;
75608;SDS011;64194;51.044;13.780;2022-11-20T00:32:56;25.42;;;10.95;;
75608;SDS011;64194;51.044;13.780;2022-11-20T00:36:59;22.13;;;10.95;;
75608;SDS011;64194;51.044;13.780;2022-11-20T00:41:01;23.13;;;10.25;;
75608;SDS011;64194;51.044;13.780;2022-11-20T00:45:07;20.40;;;8.77;;
75608;SDS011;64194;51.044;13.780;2022-11-20T00:49:10;23.35;;;11.05;;
75608;SDS011;64194;51.044;13.780;2022-11-20T00:53:12;27.05;;;9.68;;
75608;SDS011;64194;51.044;13.780;2022-11-20T00:57:14;24.85;;;9.05;;
75608;SDS011;64194;51.044;13.780;2022-11-20T01:01:22;16.42;;;8.38;;
75608;SDS011;64194;51.044;13.780;2022-11-20T01:05:26;20.85;;;8.88;;
75608;SDS011;64194;51.044;13.780;2022-11-20T01:09:30;20.58;;;9.13;;
75608;SDS011;64194;51.044;13.780;2022-11-20T01:13:34;22.05;;;9.55;;
75608;SDS011;64194;51.044;13.780;2022-11-20T01:17:40;22.25;;;9.43;;
75608;SDS011;64194;51.044;13.780;2022-11-20T01:21:43;23.80;;;9.52;;
75608;SDS011;64194;51.044;13.780;2022-11-20T01:25:45;19.63;;;8.70;;
75608;SDS011;64194;51.044;13.780;2022-11-20T01:29:47;21.67;;;9.38;;
75608;SDS011;64194;51.044;13.780;2022-11-20T01:33:49;18.60;;;7.90;;
75608;SDS011;64194;51.044;13.780;2022-11-20T01:37:53;22.88;;;9.35;;
75608;SDS011;64194;51.044;13.780;2022-11-20T01:41:55;19.10;;;8.63;;
75608;SDS011;64194;51.044;13.780;2022-11-20T01:46:16;17.90;;;7.63;;
75608;SDS011;64194;51.044;13.780;2022-11-20T01:50:21;18.42;;;8.63;;
75608;SDS011;64194;51.044;13.780;2022-11-20T01:54:29;20.50;;;8.82;;
75608;SDS011;64194;51.044;13.780;2022-11-20T01:58:39;21.60;;;8.93;;
75608;SDS011;64194;51.044;13.780;2022-11-20T02:02:47;22.85;;;8.93;;
75608;SDS011;64194;51.044;13.780;2022-11-20T02:06:55;20.27;;;8.50;;
75608;SDS011;64194;51.044;13.780;2022-11-20T02:11:05;22.70;;;9.60;;
75608;SDS011;64194;51.044;13.780;2022-11-20T02:15:07;20.25;;;8.65;;
75608;SDS011;64194;51.044;13.780;2022-11-20T02:19:15;22.63;;;8.85;;
75608;SDS011;64194;51.044;13.780;2022-11-20T02:27:25;20.63;;;8.57;;
75608;SDS011;64194;51.044;13.780;2022-11-20T02:31:27;20.10;;;8.65;;
75608;SDS011;64194;51.044;13.780;2022-11-20T02:39:30;23.33;;;8.77;;
75608;SDS011;64194;51.044;13.780;2022-11-20T02:43:32;18.65;;;8.35;;
75608;SDS011;64194;51.044;13.780;2022-11-20T02:47:34;22.52;;;8.30;;
75608;SDS011;64194;51.044;13.780;2022-11-20T02:51:35;19.58;;;8.00;;
75608;SDS011;64194;51.044;13.780;2022-11-20T02:55:37;19.77;;;7.50;;
75608;SDS011;64194;51.044;13.780;2022-11-20T02:59:38;17.80;;;7.75;;
75608;SDS011;64194;51.044;13.780;2022-11-20T03:03:40;21.70;;;8.38;;
75608;SDS011;64194;51.044;13.780;2022-11-20T03:07:43;20.58;;;8.85;;
75608;SDS011;64194;51.044;13.780;2022-11-20T03:11:45;22.88;;;9.50;;
75608;SDS011;64194;51.044;13.780;2022-11-20T03:15:46;19.77;;;8.60;;
75608;SDS011;64194;51.044;13.780;2022-11-20T03:19:48;21.38;;;8.57;;
75608;SDS011;64194;51.044;13.780;2022-11-20T03:23:50;23.27;;;8.90;;
75608;SDS011;64194;51.044;13.780;2022-11-20T03:27:51;26.67;;;9.13;;
75608;SDS011;64194;51.044;13.780;2022-11-20T03:31:53;19.55;;;7.93;;
75608;SDS011;64194;51.044;13.780;2022-11-20T03:35:54;24.98;;;8.63;;
75608;SDS011;64194;51.044;13.780;2022-11-20T03:39:56;18.13;;;8.05;;
75608;SDS011;64194;51.044;13.780;2022-11-20T03:43:58;19.90;;;8.50;;
75608;SDS011;64194;51.044;13.780;2022-11-20T03:48:02;21.38;;;8.18;;
75608;SDS011;64194;51.044;13.780;2022-11-20T03:52:04;13.52;;;6.68;;
75608;SDS011;64194;51.044;13.780;2022-11-20T03:56:06;19.42;;;6.90;;
75608;SDS011;64194;51.044;13.780;2022-11-20T04:00:08;18.75;;;7.28;;
75608;SDS011;64194;51.044;13.780;2022-11-20T04:04:11;16.27;;;7.40;;
75608;SDS011;64194;51.044;13.780;2022-11-20T04:08:12;20.90;;;6.68;;
75608;SDS011;64194;51.044;13.780;2022-11-20T04:12:14;20.25;;;7.15;;
75608;SDS011;64194;51.044;13.780;2022-11-20T04:16:15;18.50;;;7.00;;
75608;SDS011;64194;51.044;13.780;2022-11-20T04:20:18;21.45;;;7.75;;
75608;SDS011;64194;51.044;13.780;2022-11-20T04:24:19;16.27;;;6.53;;
75608;SDS011;64194;51.044;13.780;2022-11-20T04:28:21;19.88;;;7.63;;
75608;SDS011;64194;51.044;13.780;2022-11-20T04:32:22;20.17;;;7.68;;
75608;SDS011;64194;51.044;13.780;2022-11-20T04:36:25;15.48;;;7.30;;
75608;SDS011;64194;51.044;13.780;2022-11-20T04:40:27;20.27;;;7.10;;
75608;SDS011;64194;51.044;13.780;2022-11-20T04:44:29;18.90;;;8.13;;
75608;SDS011;64194;51.044;13.780;2022-11-20T04:48:31;19.02;;;7.65;;
75608;SDS011;64194;51.044;13.780;2022-11-20T04:52:32;19.48;;;8.20;;
75608;SDS011;64194;51.044;13.780;2022-11-20T04:56:33;15.45;;;6.65;;
75608;SDS011;64194;51.044;13.780;2022-11-20T05:00:35;18.40;;;7.45;;
75608;SDS011;64194;51.044;13.780;2022-11-20T05:04:37;17.52;;;7.47;;
75608;SDS011;64194;51.044;13.780;2022-11-20T05:08:39;17.98;;;7.40;;
75608;SDS011;64194;51.044;13.780;2022-11-20T05:12:40;21.23;;;7.35;;
75608;SDS011;64194;51.044;13.780;2022-11-20T05:16:43;21.25;;;7.68;;
75608;SDS011;64194;51.044;13.780;2022-11-20T05:20:44;20.35;;;8.65;;
75608;SDS011;64194;51.044;13.780;2022-11-20T05:24:46;24.55;;;8.32;;
75608;SDS011;64194;51.044;13.780;2022-11-20T05:28:47;22.02;;;8.05;;
75608;SDS011;64194;51.044;13.780;2022-11-20T05:32:50;19.70;;;7.63;;
75608;SDS011;64194;51.044;13.780;2022-11-20T05:36:51;19.33;;;7.38;;
75608;SDS011;64194;51.044;13.780;2022-11-20T05:40:53;15.68;;;6.03;;
75608;SDS011;64194;51.044;13.780;2022-11-20T05:44:54;14.65;;;6.88;;
75608;SDS011;64194;51.044;13.780;2022-11-20T05:48:56;22.50;;;7.90;;
75608;SDS011;64194;51.044;13.780;2022-11-20T05:52:59;18.30;;;6.85;;
75608;SDS011;64194;51.044;13.780;2022-11-20T05:57:01;17.85;;;7.07;;
75608;SDS011;64194;51.044;13.780;2022-11-20T06:01:25;18.13;;;7.43;;
75608;SDS011;64194;51.044;13.780;2022-11-20T06:05:26;19.73;;;7.45;;
75608;SDS011;64194;51.044;13.780;2022-11-20T06:09:27;15.95;;;6.57;;
75608;SDS011;64194;51.044;13.780;2022-11-20T06:13:29;17.17;;;6.47;;
75608;SDS011;64194;51.044;13.780;2022-11-20T06:17:30;17.15;;;6.88;;
75608;SDS011;64194;51.044;13.780;2022-11-20T06:21:32;20.52;;;6.47;;
75608;SDS011;64194;51.044;13.780;2022-11-20T06:25:36;17.58;;;6.63;;
75608;SDS011;64194;51.044;13.780;2022-11-20T06:29:40;17.77;;;6.93;;
75608;SDS011;64194;51.044;13.780;2022-11-20T06:33:42;15.32;;;6.03;;
75608;SDS011;64194;51.044;13.780;2022-11-20T06:37:44;17.20;;;6.35;;
75608;SDS011;64194;51.044;13.780;2022-11-20T06:41:45;15.20;;;6.13;;
75608;SDS011;64194;51.044;13.780;2022-11-20T06:45:53;15.70;;;6.93;;
75608;SDS011;64194;51.044;13.780;2022-11-20T06:49:59;20.13;;;6.15;;
75608;SDS011;64194;51.044;13.780;2022-11-20T06:54:01;15.95;;;7.47;;
75608;SDS011;64194;51.044;13.780;2022-11-20T06:58:03;16.05;;;6.82;;
75608;SDS011;64194;51.044;13.780;2022-11-20T07:02:11;16.25;;;6.65;;
75608;SDS011;64194;51.044;13.780;2022-11-20T07:06:13;18.27;;;7.22;;
75608;SDS011;64194;51.044;13.780;2022-11-20T07:10:18;17.90;;;7.82;;
75608;SDS011;64194;51.044;13.780;2022-11-20T07:14:21;19.27;;;8.48;;
75608;SDS011;64194;51.044;13.780;2022-11-20T07:18:23;20.17;;;7.65;;
75608;SDS011;64194;51.044;13.780;2022-11-20T07:22:24;18.42;;;8.40;;
75608;SDS011;64194;51.044;13.780;2022-11-20T07:26:26;17.98;;;8.23;;
75608;SDS011;64194;51.044;13.780;2022-11-20T07:30:28;21.65;;;8.63;;
75608;SDS011;64194;51.044;13.780;2022-11-20T07:34:29;25.13;;;10.77;;
75608;SDS011;64194;51.044;13.780;2022-11-20T07:38:33;23.58;;;10.85;;
75608;SDS011;64194;51.044;13.780;2022-11-20T07:42:34;25.70;;;10.70;;
75608;SDS011;64194;51.044;13.780;2022-11-20T07:46:36;27.05;;;10.80;;
75608;SDS011;64194;51.044;13.780;2022-11-20T07:50:37;23.90;;;11.20;;
75608;SDS011;64194;51.044;13.780;2022-11-20T07:54:39;26.33;;;11.52;;
75608;SDS011;64194;51.044;13.780;2022-11-20T07:58:40;23.60;;;11.05;;
75608;SDS011;64194;51.044;13.780;2022-11-20T08:02:42;24.20;;;11.15;;
75608;SDS011;64194;51.044;13.780;2022-11-20T08:06:44;25.52;;;12.15;;
75608;SDS011;64194;51.044;13.780;2022-11-20T08:10:46;26.40;;;12.52;;
75608;SDS011;64194;51.044;13.780;2022-11-20T08:14:47;24.75;;;12.15;;
75608;SDS011;64194;51.044;13.780;2022-11-20T08:18:49;27.65;;;12.63;;
75608;SDS011;64194;51.044;13.780;2022-11-20T08:22:50;25.20;;;12.20;;
75608;SDS011;64194;51.044;13.780;2022-11-20T08:26:52;23.55;;;12.70;;
75608;SDS011;64194;51.044;13.780;2022-11-20T08:31:01;27.15;;;13.43;;
75608;SDS011;64194;51.044;13.780;2022-11-20T08:35:04;23.30;;;12.65;;
75608;SDS011;64194;51.044;13.780;2022-11-20T08:39:06;21.67;;;12.75;;
75608;SDS011;64194;51.044;13.780;2022-11-20T08:43:07;24.10;;;12.75;;
75608;SDS011;64194;51.044;13.780;2022-11-20T08:47:09;28.38;;;14.68;;
75608;SDS011;64194;51.044;13.780;2022-11-20T08:51:11;23.55;;;14.18;;
75608;SDS011;64194;51.044;13.780;2022-11-20T08:55:13;26.92;;;14.90;;
75608;SDS011;64194;51.044;13.780;2022-11-20T08:59:15;24.60;;;13.88;;
75608;SDS011;64194;51.044;13.780;2022-11-20T09:03:36;26.92;;;13.32;;
75608;SDS011;64194;51.044;13.780;2022-11-20T09:07:38;24.55;;;13.25;;
75608;SDS011;64194;51.044;13.780;2022-11-20T09:11:42;21.73;;;13.20;;
75608;SDS011;64194;51.044;13.780;2022-11-20T09:15:44;23.63;;;14.07;;
75608;SDS011;64194;51.044;13.780;2022-11-20T09:19:46;23.50;;;13.18;;
75608;SDS011;64194;51.044;13.780;2022-11-20T09:23:48;19.77;;;12.60;;
75608;SDS011;64194;51.044;13.780;2022-11-20T09:27:56;18.20;;;12.25;;
75608;SDS011;64194;51.044;13.780;2022-11-20T09:31:58;18.48;;;12.25;;
75608;SDS011;64194;51.044;13.780;2022-11-20T09:36:00;19.60;;;11.52;;
75608;SDS011;64194;51.044;13.780;2022-11-20T09:40:02;19.05;;;12.88;;
75608;SDS011;64194;51.044;13.780;2022-11-20T09:44:07;18.30;;;11.73;;
75608;SDS011;64194;51.044;13.780;2022-11-20T09:53:24;19.08;;;12.15;;
75608;SDS011;64194;51.044;13.780;2022-11-20T09:57:34;19.45;;;13.35;;
75608;SDS011;64194;51.044;13.780;2022-11-20T10:01:37;13.80;;;9.85;;
75608;SDS011;64194;51.044;13.780;2022-11-20T10:05:46;16.25;;;10.90;;
75608;SDS011;64194;51.044;13.780;2022-11-20T10:09:52;15.18;;;10.88;;
75608;SDS011;64194;51.044;13.780;2022-11-20T10:14:01;15.20;;;10.57;;
75608;SDS011;64194;51.044;13.780;2022-11-20T10:22:41;16.27;;;11.23;;
75608;SDS011;64194;51.044;13.780;2022-11-20T10:27:02;15.23;;;10.70;;
75608;SDS011;64194;51.044;13.780;2022-11-20T10:31:23;13.88;;;9.60;;
75608;SDS011;64194;51.044;13.780;2022-11-20T10:35:39;14.07;;;9.68;;
75608;SDS011;64194;51.044;13.780;2022-11-20T10:39:59;12.45;;;9.18;;
75608;SDS011;64194;51.044;13.780;2022-11-20T10:44:20;12.45;;;9.27;;
75608;SDS011;64194;51.044;13.780;2022-11-20T10:48:42;13.07;;;9.32;;
75608;SDS011;64194;51.044;13.780;2022-11-20T10:52:52;13.05;;;8.82;;
75608;SDS011;64194;51.044;13.780;2022-11-20T10:57:03;13.30;;;8.77;;
75608;SDS011;64194;51.044;13.780;2022-11-20T11:01:17;14.45;;;9.90;;
75608;SDS011;64194;51.044;13.780;2022-11-20T11:09:42;16.60;;;9.25;;
75608;SDS011;64194;51.044;13.780;2022-11-20T11:13:48;14.00;;;8.50;;
75608;SDS011;64194;51.044;13.780;2022-11-20T11:17:50;16.77;;;9.35;;
75608;SDS011;64194;51.044;13.780;2022-11-20T11:21:55;12.68;;;8.68;;
75608;SDS011;64194;51.044;13.780;2022-11-20T11:25:59;13.38;;;9.35;;
75608;SDS011;64194;51.044;13.780;2022-11-20T11:30:11;12.77;;;8.15;;
75608;SDS011;64194;51.044;13.780;2022-11-20T11:34:16;13.45;;;7.82;;
75608;SDS011;64194;51.044;13.780;2022-11-20T11:38:23;12.52;;;7.30;;
75608;SDS011;64194;51.044;13.780;2022-11-20T11:42:28;15.27;;;8.27;;
75608;SDS011;64194;51.044;13.780;2022-11-20T11:46:32;13.68;;;6.80;;
75608;SDS011;64194;51.044;13.780;2022-11-20T11:50:38;13.13;;;6.90;;
75608;SDS011;64194;51.044;13.780;2022-11-20T11:54:53;14.15;;;5.60;;
75608;SDS011;64194;51.044;13.780;2022-11-20T11:59:00;10.48;;;5.22;;
75608;SDS011;64194;51.044;13.780;2022-11-20T12:03:17;10.35;;;4.93;;
75608;SDS011;64194;51.044;13.780;2022-11-20T12:07:29;12.30;;;6.00;;
75608;SDS011;64194;51.044;13.780;2022-11-20T12:11:53;9.98;;;5.20;;
75608;SDS011;64194;51.044;13.780;2022-11-20T12:15:56;11.05;;;5.00;;
75608;SDS011;64194;51.044;13.780;2022-11-20T12:19:58;9.30;;;4.93;;
75608;SDS011;64194;51.044;13.780;2022-11-20T12:36:56;13.15;;;6.90;;
75608;SDS011;64194;51.044;13.780;2022-11-20T12:50:31;11.70;;;5.93;;
75608;SDS011;64194;51.044;13.780;2022-11-20T12:55:14;13.50;;;6.00;;
75608;SDS011;64194;51.044;13.780;2022-11-20T13:03:51;12.20;;;5.93;;
75608;SDS011;64194;51.044;13.780;2022-11-20T13:07:57;11.02;;;5.10;;
75608;SDS011;64194;51.044;13.780;2022-11-20T13:12:04;13.50;;;6.07;;
75608;SDS011;64194;51.044;13.780;2022-11-20T13:20:21;11.90;;;5.75;;
75608;SDS011;64194;51.044;13.780;2022-11-20T13:24:25;12.38;;;5.97;;
75608;SDS011;64194;51.044;13.780;2022-11-20T13:28:29;11.75;;;5.88;;
75608;SDS011;64194;51.044;13.780;2022-11-20T13:32:31;13.70;;;6.60;;
75608;SDS011;64194;51.044;13.780;2022-11-20T13:36:34;16.17;;;8.00;;
75608;SDS011;64194;51.044;13.780;2022-11-20T13:40:50;13.85;;;6.10;;
75608;SDS011;64194;51.044;13.780;2022-11-20T13:45:09;12.85;;;4.80;;
75608;SDS011;64194;51.044;13.780;2022-11-20T13:49:37;12.85;;;5.00;;
75608;SDS011;64194;51.044;13.780;2022-11-20T14:02:33;15.40;;;6.55;;
75608;SDS011;64194;51.044;13.780;2022-11-20T14:06:44;11.27;;;4.75;;
75608;SDS011;64194;51.044;13.780;2022-11-20T14:10:48;9.57;;;4.45;;
75608;SDS011;64194;51.044;13.780;2022-11-20T14:14:51;12.32;;;6.05;;
75608;SDS011;64194;51.044;13.780;2022-11-20T14:18:56;11.00;;;5.57;;
75608;SDS011;64194;51.044;13.780;2022-11-20T14:22:59;12.50;;;5.78;;
75608;SDS011;64194;51.044;13.780;2022-11-20T14:27:00;12.15;;;5.78;;
75608;SDS011;64194;51.044;13.780;2022-11-20T14:31:08;11.93;;;5.35;;
75608;SDS011;64194;51.044;13.780;2022-11-20T14:35:21;10.90;;;5.13;;
75608;SDS011;64194;51.044;13.780;2022-11-20T14:39:30;12.15;;;5.53;;
75608;SDS011;64194;51.044;13.780;2022-11-20T14:43:34;11.77;;;4.75;;
75608;SDS011;64194;51.044;13.780;2022-11-20T14:47:38;12.25;;;5.63;;
75608;SDS011;64194;51.044;13.780;2022-11-20T14:51:42;10.40;;;5.55;;
75608;SDS011;64194;51.044;13.780;2022-11-20T14:55:43;11.02;;;5.05;;
75608;SDS011;64194;51.044;13.780;2022-11-20T14:59:45;11.90;;;5.40;;
75608;SDS011;64194;51.044;13.780;2022-11-20T15:03:56;14.30;;;6.82;;
75608;SDS011;64194;51.044;13.780;2022-11-20T15:12:15;12.23;;;5.72;;
75608;SDS011;64194;51.044;13.780;2022-11-20T15:16:20;14.02;;;5.80;;
75608;SDS011;64194;51.044;13.780;2022-11-20T15:20:25;12.95;;;5.97;;
75608;SDS011;64194;51.044;13.780;2022-11-20T15:24:31;13.55;;;6.05;;
75608;SDS011;64194;51.044;13.780;2022-11-20T15:28:35;12.35;;;5.57;;
75608;SDS011;64194;51.044;13.780;2022-11-20T15:32:40;12.70;;;5.72;;
75608;SDS011;64194;51.044;13.780;2022-11-20T15:36:43;16.55;;;7.00;;
75608;SDS011;64194;51.044;13.780;2022-11-20T15:40:45;13.57;;;7.15;;
75608;SDS011;64194;51.044;13.780;2022-11-20T15:44:47;16.33;;;7.20;;
75608;SDS011;64194;51.044;13.780;2022-11-20T15:48:51;17.10;;;6.45;;
75608;SDS011;64194;51.044;13.780;2022-11-20T15:52:55;14.50;;;6.32;;
75608;SDS011;64194;51.044;13.780;2022-11-20T15:56:57;13.50;;;6.30;;
75608;SDS011;64194;51.044;13.780;2022-11-20T16:00:59;13.15;;;7.13;;
75608;SDS011;64194;51.044;13.780;2022-11-20T16:05:01;14.23;;;6.90;;
75608;SDS011;64194;51.044;13.780;2022-11-20T16:09:02;15.65;;;7.53;;
75608;SDS011;64194;51.044;13.780;2022-11-20T16:13:05;19.30;;;8.05;;
75608;SDS011;64194;51.044;13.780;2022-11-20T16:17:34;16.88;;;7.10;;
75608;SDS011;64194;51.044;13.780;2022-11-20T16:21:45;16.33;;;7.68;;
75608;SDS011;64194;51.044;13.780;2022-11-20T16:25:47;13.95;;;6.63;;
75608;SDS011;64194;51.044;13.780;2022-11-20T16:29:49;17.35;;;7.45;;
75608;SDS011;64194;51.044;13.780;2022-11-20T16:33:53;16.67;;;7.38;;
75608;SDS011;64194;51.044;13.780;2022-11-20T16:37:59;15.85;;;7.18;;
75608;SDS011;64194;51.044;13.780;2022-11-20T16:42:03;16.25;;;7.38;;
75608;SDS011;64194;51.044;13.780;2022-11-20T16:46:05;18.38;;;7.55;;
75608;SDS011;64194;51.044;13.780;2022-11-20T16:50:09;17.30;;;7.95;;
75608;SDS011;64194;51.044;13.780;2022-11-20T16:54:13;17.52;;;8.10;;
75608;SDS011;64194;51.044;13.780;2022-11-20T16:58:21;15.18;;;7.40;;
75608;SDS011;64194;51.044;13.780;2022-11-20T17:02:23;16.58;;;7.80;;
75608;SDS011;64194;51.044;13.780;2022-11-20T17:06:27;19.17;;;8.50;;
75608;SDS011;64194;51.044;13.780;2022-11-20T17:10:33;19.25;;;8.85;;
75608;SDS011;64194;51.044;13.780;2022-11-20T17:14:35;15.90;;;7.63;;
75608;SDS011;64194;51.044;13.780;2022-11-20T17:18:40;18.73;;;8.45;;
75608;SDS011;64194;51.044;13.780;2022-11-20T17:22:41;16.55;;;8.95;;
75608;SDS011;64194;51.044;13.780;2022-11-20T17:26:43;19.15;;;8.77;;
75608;SDS011;64194;51.044;13.780;2022-11-20T17:30:49;18.70;;;8.48;;
75608;SDS011;64194;51.044;13.780;2022-11-20T17:34:53;19.63;;;9.70;;
75608;SDS011;64194;51.044;13.780;2022-11-20T17:38:55;18.65;;;9.13;;
75608;SDS011;64194;51.044;13.780;2022-11-20T17:43:00;22.30;;;11.57;;
75608;SDS011;64194;51.044;13.780;2022-11-20T17:47:01;21.38;;;10.07;;
75608;SDS011;64194;51.044;13.780;2022-11-20T17:51:04;23.92;;;11.10;;
75608;SDS011;64194;51.044;13.780;2022-11-20T17:55:06;26.13;;;10.73;;
75608;SDS011;64194;51.044;13.780;2022-11-20T17:59:09;22.95;;;10.95;;
75608;SDS011;64194;51.044;13.780;2022-11-20T18:03:12;23.83;;;11.27;;
75608;SDS011;64194;51.044;13.780;2022-11-20T18:07:14;20.63;;;10.50;;
75608;SDS011;64194;51.044;13.780;2022-11-20T18:11:20;20.08;;;10.73;;
75608;SDS011;64194;51.044;13.780;2022-11-20T18:15:24;21.70;;;9.80;;
75608;SDS011;64194;51.044;13.780;2022-11-20T18:19:31;24.15;;;10.15;;
75608;SDS011;64194;51.044;13.780;2022-11-20T18:23:48;20.83;;;11.90;;
75608;SDS011;64194;51.044;13.780;2022-11-20T18:27:51;25.60;;;11.80;;
75608;SDS011;64194;51.044;13.780;2022-11-20T18:32:01;22.58;;;10.82;;
75608;SDS011;64194;51.044;13.780;2022-11-20T18:40:39;24.83;;;11.55;;
75608;SDS011;64194;51.044;13.780;2022-11-20T18:44:41;21.83;;;10.15;;
75608;SDS011;64194;51.044;13.780;2022-11-20T18:48:52;20.65;;;10.98;;
75608;SDS011;64194;51.044;13.780;2022-11-20T18:57:33;22.55;;;10.82;;
75608;SDS011;64194;51.044;13.780;2022-11-20T19:01:47;22.92;;;11.40;;
75608;SDS011;64194;51.044;13.780;2022-11-20T19:05:57;24.95;;;12.30;;
75608;SDS011;64194;51.044;13.780;2022-11-20T19:10:03;22.73;;;11.75;;
75608;SDS011;64194;51.044;13.780;2022-11-20T19:14:07;22.77;;;11.20;;
75608;SDS011;64194;51.044;13.780;2022-11-20T19:22:44;24.70;;;12.30;;
75608;SDS011;64194;51.044;13.780;2022-11-20T19:31:36;25.58;;;11.65;;
75608;SDS011;64194;51.044;13.780;2022-11-20T19:35:38;27.27;;;12.63;;
75608;SDS011;64194;51.044;13.780;2022-11-20T19:39:40;26.45;;;12.35;;
75608;SDS011;64194;51.044;13.780;2022-11-20T19:43:42;28.55;;;14.93;;
75608;SDS011;64194;51.044;13.780;2022-11-20T19:47:45;30.33;;;14.43;;
75608;SDS011;64194;51.044;13.780;2022-11-20T19:52:16;32.17;;;16.83;;
75608;SDS011;64194;51.044;13.780;2022-11-20T19:56:19;30.23;;;15.15;;
75608;SDS011;64194;51.044;13.780;2022-11-20T20:06:13;26.65;;;14.50;;
75608;SDS011;64194;51.044;13.780;2022-11-20T20:15:11;26.80;;;12.63;;
75608;SDS011;64194;51.044;13.780;2022-11-20T20:29:52;27.60;;;13.57;;
75608;SDS011;64194;51.044;13.780;2022-11-20T20:38:36;24.02;;;11.27;;
75608;SDS011;64194;51.044;13.780;2022-11-20T21:01:09;27.02;;;10.55;;
75608;SDS011;64194;51.044;13.780;2022-11-20T21:05:13;27.67;;;10.75;;
75608;SDS011;64194;51.044;13.780;2022-11-20T21:30:46;28.23;;;11.18;;
75608;SDS011;64194;51.044;13.780;2022-11-20T21:34:55;27.95;;;11.77;;
75608;SDS011;64194;51.044;13.780;2022-11-20T21:38:57;29.33;;;11.88;;
75608;SDS011;64194;51.044;13.780;2022-11-20T21:43:02;28.23;;;11.55;;
75608;SDS011;64194;51.044;13.780;2022-11-20T21:47:04;29.65;;;11.80;;
75608;SDS011;64194;51.044;13.780;2022-11-20T21:51:07;31.42;;;12.07;;
75608;SDS011;64194;51.044;13.780;2022-11-20T21:55:10;25.63;;;11.25;;
75608;SDS011;64194;51.044;13.780;2022-11-20T21:59:12;27.63;;;11.82;;
75608;SDS011;64194;51.044;13.780;2022-11-20T22:03:14;24.88;;;10.63;;
75608;SDS011;64194;51.044;13.780;2022-11-20T22:07:16;27.98;;;11.85;;
75608;SDS011;64194;51.044;13.780;2022-11-20T22:11:18;30.42;;;12.93;;
75608;SDS011;64194;51.044;13.780;2022-11-20T22:15:21;27.27;;;11.60;;
75608;SDS011;64194;51.044;13.780;2022-11-20T22:19:43;29.33;;;10.50;;
75608;SDS011;64194;51.044;13.780;2022-11-20T22:23:45;29.83;;;11.50;;
75608;SDS011;64194;51.044;13.780;2022-11-20T22:27:47;25.67;;;11.35;;
75608;SDS011;64194;51.044;13.780;2022-11-20T22:31:50;26.65;;;10.48;;
75608;SDS011;64194;51.044;13.780;2022-11-20T22:35:52;29.90;;;11.15;;
75608;SDS011;64194;51.044;13.780;2022-11-20T22:39:59;31.27;;;12.75;;
75608;SDS011;64194;51.044;13.780;2022-11-20T22:44:02;32.72;;;12.63;;
75608;SDS011;64194;51.044;13.780;2022-11-20T22:48:05;29.58;;;11.88;;
75608;SDS011;64194;51.044;13.780;2022-11-20T22:52:12;28.83;;;11.30;;
75608;SDS011;64194;51.044;13.780;2022-11-20T22:56:15;34.50;;;14.18;;
75608;SDS011;64194;51.044;13.780;2022-11-20T23:00:20;27.15;;;12.40;;
75608;SDS011;64194;51.044;13.780;2022-11-20T23:04:21;31.33;;;13.63;;
75608;SDS011;64194;51.044;13.780;2022-11-20T23:08:24;33.42;;;15.43;;
75608;SDS011;64194;51.044;13.780;2022-11-20T23:12:28;35.53;;;14.07;;
75608;SDS011;64194;51.044;13.780;2022-11-20T23:16:33;38.28;;;14.88;;
75608;SDS011;64194;51.044;13.780;2022-11-20T23:20:35;35.88;;;14.00;;
75608;SDS011;64194;51.044;13.780;2022-11-20T23:24:37;37.25;;;15.93;;
75608;SDS011;64194;51.044;13.780;2022-11-20T23:28:38;35.90;;;15.55;;
75608;SDS011;64194;51.044;13.780;2022-11-20T23:32:43;38.15;;;15.23;;
75608;SDS011;64194;51.044;13.780;2022-11-20T23:36:47;39.40;;;15.55;;
75608;SDS011;64194;51.044;13.780;2022-11-20T23:40:49;38.45;;;14.68;;
75608;SDS011;64194;51.044;13.780;2022-11-20T23:44:52;36.33;;;14.73;;
75608;SDS011;64194;51.044;13.780;2022-11-20T23:48:58;43.47;;;17.75;;
75608;SDS011;64194;51.044;13.780;2022-11-20T23:53:05;36.42;;;14.82;;
75608;SDS011;64194;51.044;13.780;2022-11-20T23:57:06;40.65;;;16.00;;
